Waterloo, Wisconsin
Current Conditions -  °F | °C
As of 10:35 PM on Friday 24 Oct 2014 (Local Time) from KRYV Reporting Station
Broken Clouds Broken Clouds  
Wind Chill: 12°   Ceiling: 3900
Heat Index: 12°   Visibility: 10mi
Dew Point: 11°   Wind: 3mph
Humidity: 92%   Direction: 220°SW
Pressure: 29.9"   Gusts: NA
Location:  43.18°N, 88.99°W
Report Text: KRYV 250335Z AUTO 22003KT 10SM BKN039 12/11 A2990 RMK AO2 T01180106
Loading
Personal Weather Stations






























Interactive Weather Map
Tropical Storm Tracking
New forecast layout! Learn more

10-Day Weather Forecast

Advertisements
Track Severe Weather on mobile